Time;durP1;ratioP1;P1;durP2;ratioP2;P2;SDS_P1;SDS_P2;PMS_P1;PMS_P2;Temp;Humidity;BMP_temperature;BMP_pressure;BME280_temperature;BME280_humidity;BME280_pressure;Samples;Min_cycle;Max_cycle;Signal;HPM_P1;HPM_P2
2022/12/13 00:02:08;;;;;;;;;34.75;31.00;;;;;-147.17;100.00;-15917.19;5061345;28;51114;-59
2022/12/13 00:04:33;;;;;;;;;31.00;25.00;;;;;-147.17;100.00;-15917.19;5063559;28;51032;-59
2022/12/13 00:06:59;;;;;;;;;16.25;13.50;;;;;-147.17;100.00;-15917.19;5054390;28;50937;-59
2022/12/13 00:09:24;;;;;;;;;22.50;22.50;;;;;-147.17;100.00;-15917.19;5054704;28;51131;-59
2022/12/13 00:11:51;;;;;;;;;22.00;19.00;;;;;-147.17;100.00;-15917.19;5061535;28;51213;-61
2022/12/13 00:14:17;;;;;;;;;19.00;15.00;;;;;-147.17;100.00;-15917.19;5042873;28;51760;-58
2022/12/13 00:16:47;;;;;;;;;25.75;19.50;;;;;-147.17;100.00;-15917.19;5057124;28;52044;-59
2022/12/13 00:19:13;;;;;;;;;23.25;21.75;;;;;-147.17;100.00;-15917.19;5056709;28;51127;-60
2022/12/13 00:21:39;;;;;;;;;27.00;21.50;;;;;-147.17;100.00;-15917.19;5055373;28;51132;-60
2022/12/13 00:24:06;;;;;;;;;19.00;15.00;;;;;-147.17;100.00;-15917.19;5054146;28;51215;-59
2022/12/13 00:26:32;;;;;;;;;24.75;24.00;;;;;-147.17;100.00;-15917.19;5053495;28;52508;-59
2022/12/13 00:29:03;;;;;;;;;31.00;23.25;;;;;-147.17;100.00;-15917.19;5056709;28;51219;-59
2022/12/13 00:31:30;;;;;;;;;27.00;26.00;;;;;-147.17;100.00;-15917.19;5062528;28;51144;-60
2022/12/13 00:33:57;;;;;;;;;22.50;22.25;;;;;-147.17;100.00;-15917.19;5054052;28;51316;-59
2022/12/13 00:36:23;;;;;;;;;24.25;22.50;;;;;-147.17;100.00;-15917.19;5069810;28;52738;-59
2022/12/13 00:38:59;;;;;;;;;28.00;21.75;;;;;-147.17;100.00;-15917.19;5074530;28;51005;-60
2022/12/13 00:41:26;;;;;;;;;28.50;28.00;;;;;-147.17;100.00;-15917.19;5055186;28;51417;-60
2022/12/13 00:43:52;;;;;;;;;24.50;21.25;;;;;-147.17;100.00;-15917.19;5073597;28;51170;-60
2022/12/13 00:46:19;;;;;;;;;7.75;5.25;;;;;-147.17;100.00;-15917.19;5060859;28;51768;-59
2022/12/13 00:48:49;;;;;;;;;17.00;15.25;;;;;-147.17;100.00;-15917.19;5056027;28;51153;-59
2022/12/13 00:51:15;;;;;;;;;16.50;13.25;;;;;-147.17;100.00;-15917.19;5067622;28;51177;-59
2022/12/13 00:53:41;;;;;;;;;31.75;22.00;;;;;-147.17;100.00;-15917.19;5048503;28;51482;-59
2022/12/13 00:56:11;;;;;;;;;20.50;18.00;;;;;-147.17;100.00;-15917.19;5060275;28;51109;-60
2022/12/13 00:58:37;;;;;;;;;24.50;22.50;;;;;-147.17;100.00;-15917.19;5067539;28;51215;-60
2022/12/13 01:01:09;;;;;;;;;21.00;20.50;;;;;-147.17;100.00;-15917.19;5052354;28;51207;-60
2022/12/13 01:03:35;;;;;;;;;18.00;16.00;;;;;-147.17;100.00;-15917.19;5073087;27;51069;-60
2022/12/13 01:06:01;;;;;;;;;19.25;18.00;;;;;-147.17;100.00;-15917.19;5062663;28;51025;-60
2022/12/13 01:08:27;;;;;;;;;21.00;18.25;;;;;-147.17;100.00;-15917.19;5052436;28;51307;-59
2022/12/13 01:10:53;;;;;;;;;26.50;23.00;;;;;-147.17;100.00;-15917.19;5059637;28;51423;-59
2022/12/13 01:13:19;;;;;;;;;27.00;22.75;;;;;-147.17;100.00;-15917.19;5074267;28;50971;-59
2022/12/13 01:15:46;;;;;;;;;25.00;22.75;;;;;-147.17;100.00;-15917.19;5052146;28;52034;-59
2022/12/13 01:18:16;;;;;;;;;15.50;12.00;;;;;-147.17;100.00;-15917.19;5040868;28;51024;-59
2022/12/13 01:20:43;;;;;;;;;22.75;20.00;;;;;-147.17;100.00;-15917.19;5064651;28;51175;-58
2022/12/13 01:23:08;;;;;;;;;24.50;22.25;;;;;-147.17;100.00;-15917.19;5052737;28;51187;-59
2022/12/13 01:25:36;;;;;;;;;25.50;21.50;;;;;-147.17;100.00;-15917.19;5057308;28;51096;-59
2022/12/13 01:28:02;;;;;;;;;20.00;18.25;;;;;-147.17;100.00;-15917.19;5073902;28;50929;-59
2022/12/13 01:30:27;;;;;;;;;24.75;22.25;;;;;-147.17;100.00;-15917.19;5056974;28;50917;-60
2022/12/13 01:32:52;;;;;;;;;17.00;15.75;;;;;-147.17;100.00;-15917.19;5052956;28;51202;-60
2022/12/13 01:35:18;;;;;;;;;20.00;17.75;;;;;-147.17;100.00;-15917.19;5056962;28;51766;-59
2022/12/13 01:37:43;;;;;;;;;18.75;18.25;;;;;-147.17;100.00;-15917.19;5068722;28;51134;-60
2022/12/13 01:40:09;;;;;;;;;18.50;18.25;;;;;-147.17;100.00;-15917.19;5062280;28;50952;-60
2022/12/13 01:42:38;;;;;;;;;20.50;18.00;;;;;-147.17;100.00;-15917.19;5055314;28;51388;-59
2022/12/13 01:45:21;;;;;;;;;21.00;18.75;;;;;-147.17;100.00;-15917.19;5036925;28;51929;-59
2022/12/13 01:47:53;;;;;;;;;20.75;17.75;;;;;-147.17;100.00;-15917.19;5068065;28;50945;-59
2022/12/13 01:50:27;;;;;;;;;21.25;15.75;;;;;-147.17;100.00;-15917.19;5072426;28;50960;-60
2022/12/13 01:52:55;;;;;;;;;16.75;13.75;;;;;-147.17;100.00;-15917.19;5037071;28;51014;-59
2022/12/13 01:55:22;;;;;;;;;19.50;18.75;;;;;-147.17;100.00;-15917.19;5055957;28;52024;-59
2022/12/13 01:57:50;;;;;;;;;21.25;18.25;;;;;-147.17;100.00;-15917.19;5056519;28;51240;-58
2022/12/13 02:00:16;;;;;;;;;20.00;18.50;;;;;-147.17;100.00;-15917.19;5066290;28;51201;-60
2022/12/13 02:02:41;;;;;;;;;15.25;12.25;;;;;-147.17;100.00;-15917.19;5057761;28;51032;-58
2022/12/13 02:05:20;;;;;;;;;20.00;17.75;;;;;-147.17;100.00;-15917.19;5052529;28;50897;-60
2022/12/13 02:07:47;;;;;;;;;21.00;19.00;;;;;-147.17;100.00;-15917.19;5050457;28;52868;-59
2022/12/13 02:10:12;;;;;;;;;18.50;16.50;;;;;-147.17;100.00;-15917.19;5039312;28;51222;-59
2022/12/13 02:12:39;;;;;;;;;15.50;13.00;;;;;-147.17;100.00;-15917.19;5052994;28;51224;-58
2022/12/13 02:15:12;;;;;;;;;17.00;16.50;;;;;-147.17;100.00;-15917.19;5055102;28;51791;-61
2022/12/13 02:17:56;;;;;;;;;21.00;18.50;;;;;-147.17;100.00;-15917.19;5068219;28;51079;-58
2022/12/13 02:20:52;;;;;;;;;20.00;17.00;;;;;-147.17;100.00;-15917.19;5055024;28;51158;-60
2022/12/13 02:23:33;;;;;;;;;16.50;15.75;;;;;-147.17;100.00;-15917.19;5034895;28;51083;-60
2022/12/13 02:26:04;;;;;;;;;18.25;15.50;;;;;-147.17;100.00;-15917.19;5053653;28;52152;-59
2022/12/13 02:29:00;;;;;;;;;16.00;15.00;;;;;-147.17;100.00;-15917.19;5051767;28;51255;-59
2022/12/13 02:31:38;;;;;;;;;13.25;12.75;;;;;-147.17;100.00;-15917.19;5055981;28;51273;-58
2022/12/13 02:34:14;;;;;;;;;13.50;10.75;;;;;-147.17;100.00;-15917.19;5053028;28;51013;-59
2022/12/13 02:37:02;;;;;;;;;11.75;9.75;;;;;-147.17;100.00;-15917.19;5034999;28;52893;-59
2022/12/13 02:39:34;;;;;;;;;21.00;17.50;;;;;-147.17;100.00;-15917.19;5066428;28;51830;-58
2022/12/13 02:42:11;;;;;;;;;18.50;15.25;;;;;-147.17;100.00;-15917.19;5063657;28;51096;-61
2022/12/13 02:44:42;;;;;;;;;19.75;16.00;;;;;-147.17;100.00;-15917.19;5060470;28;51224;-60
2022/12/13 02:47:17;;;;;;;;;14.75;12.25;;;;;-147.17;100.00;-15917.19;5066621;28;51838;-58
2022/12/13 02:49:47;;;;;;;;;21.00;16.50;;;;;-147.17;100.00;-15917.19;5061622;28;53608;-59
2022/12/13 02:52:18;;;;;;;;;20.00;18.00;;;;;-147.17;100.00;-15917.19;5064610;28;51095;-59
2022/12/13 02:54:43;;;;;;;;;16.00;12.25;;;;;-147.17;100.00;-15917.19;5054654;27;51013;-59
2022/12/13 02:57:30;;;;;;;;;14.00;13.00;;;;;-147.17;100.00;-15917.19;5067221;28;51377;-60
2022/12/13 03:00:00;;;;;;;;;13.50;12.00;;;;;-147.17;100.00;-15917.19;5069136;28;51039;-58
2022/12/13 03:02:46;;;;;;;;;21.25;18.00;;;;;-147.17;100.00;-15917.19;5053172;28;50933;-58
2022/12/13 03:08:37;;;;;;;;;18.00;18.00;;;;;-147.17;100.00;-15917.19;5060875;28;51601;-58
2022/12/13 03:11:10;;;;;;;;;21.50;16.00;;;;;-147.17;100.00;-15917.19;5051514;28;50964;-59
2022/12/13 03:13:38;;;;;;;;;17.50;16.50;;;;;-147.17;100.00;-15917.19;5070091;28;51047;-60
2022/12/13 03:16:12;;;;;;;;;18.50;16.75;;;;;-147.17;100.00;-15917.19;5059273;28;51306;-60
2022/12/13 03:18:38;;;;;;;;;14.00;14.00;;;;;-147.17;100.00;-15917.19;5058609;28;51009;-60
2022/12/13 03:21:08;;;;;;;;;17.25;16.25;;;;;-147.17;100.00;-15917.19;5062855;28;51090;-60
2022/12/13 03:23:34;;;;;;;;;17.00;14.00;;;;;-147.17;100.00;-15917.19;5057647;28;51214;-59
2022/12/13 03:26:12;;;;;;;;;20.00;17.25;;;;;-147.17;100.00;-15917.19;5074249;28;53348;-60
2022/12/13 03:28:38;;;;;;;;;13.50;13.00;;;;;-147.17;100.00;-15917.19;5059861;28;52367;-59
2022/12/13 03:31:04;;;;;;;;;18.50;17.75;;;;;-147.17;100.00;-15917.19;5055297;28;51273;-60
2022/12/13 03:33:29;;;;;;;;;16.00;13.50;;;;;-147.17;100.00;-15917.19;5036899;28;51267;-58
2022/12/13 03:35:56;;;;;;;;;18.75;17.50;;;;;-147.17;100.00;-15917.19;5054571;28;51049;-59
2022/12/13 03:38:21;;;;;;;;;18.00;15.50;;;;;-147.17;100.00;-15917.19;5069486;28;51142;-60
2022/12/13 03:40:47;;;;;;;;;16.50;15.50;;;;;-147.17;100.00;-15917.19;5065897;28;51450;-59
2022/12/13 03:43:13;;;;;;;;;15.25;12.50;;;;;-147.17;100.00;-15917.19;5065410;28;51069;-59
2022/12/13 03:45:38;;;;;;;;;17.25;16.50;;;;;-147.17;100.00;-15917.19;5065157;28;51249;-60
2022/12/13 03:48:04;;;;;;;;;16.50;15.50;;;;;-147.17;100.00;-15917.19;5052563;28;52744;-58
2022/12/13 03:50:29;;;;;;;;;19.00;17.50;;;;;-147.17;100.00;-15917.19;5061765;28;51188;-60
2022/12/13 03:52:59;;;;;;;;;21.00;16.00;;;;;-147.17;100.00;-15917.19;5074587;28;50950;-60
2022/12/13 03:55:25;;;;;;;;;17.75;13.75;;;;;-147.17;100.00;-15917.19;5063286;27;51380;-57
2022/12/13 03:57:50;;;;;;;;;13.50;13.00;;;;;-147.17;100.00;-15917.19;5062825;28;52900;-59
2022/12/13 04:00:16;;;;;;;;;20.00;19.50;;;;;-147.17;100.00;-15917.19;5058636;28;51048;-59
2022/12/13 04:02:41;;;;;;;;;18.50;16.50;;;;;-147.17;100.00;-15917.19;5055554;28;51027;-59
2022/12/13 04:05:07;;;;;;;;;17.50;15.50;;;;;-147.17;100.00;-15917.19;5072480;28;50982;-58
2022/12/13 04:07:32;;;;;;;;;18.50;16.50;;;;;-147.17;100.00;-15917.19;5065594;28;51005;-59
2022/12/13 04:09:57;;;;;;;;;21.00;17.75;;;;;-147.17;100.00;-15917.19;5061983;28;51161;-59
2022/12/13 04:15:07;;;;;;;;;17.00;15.25;;;;;-147.17;100.00;-15917.19;5055998;28;50992;-59
2022/12/13 04:17:32;;;;;;;;;18.50;16.50;;;;;-147.17;100.00;-15917.19;5053818;28;52529;-60
2022/12/13 04:19:57;;;;;;;;;17.50;15.50;;;;;-147.17;100.00;-15917.19;5060590;28;50941;-60
2022/12/13 04:22:23;;;;;;;;;17.50;16.25;;;;;-147.17;100.00;-15917.19;5053565;28;51373;-59
2022/12/13 04:24:48;;;;;;;;;18.25;15.00;;;;;-147.17;100.00;-15917.19;5069002;28;51228;-59
2022/12/13 04:27:13;;;;;;;;;16.25;13.00;;;;;-147.17;100.00;-15917.19;5072126;28;50972;-59
2022/12/13 04:29:39;;;;;;;;;8.50;4.00;;;;;-147.17;100.00;-15917.19;5066668;28;51116;-59
2022/12/13 04:32:04;;;;;;;;;17.00;15.50;;;;;-147.17;100.00;-15917.19;5046872;28;51725;-57
2022/12/13 04:34:30;;;;;;;;;21.50;18.50;;;;;-147.17;100.00;-15917.19;5053749;28;51190;-59
2022/12/13 04:36:55;;;;;;;;;13.00;11.00;;;;;-147.17;100.00;-15917.19;5054826;28;51036;-59
2022/12/13 04:39:21;;;;;;;;;21.00;18.75;;;;;-147.17;100.00;-15917.19;5065141;28;50942;-60
2022/12/13 04:41:46;;;;;;;;;23.00;18.50;;;;;-147.17;100.00;-15917.19;5064905;28;51087;-59
2022/12/13 04:44:11;;;;;;;;;20.00;17.50;;;;;-147.17;100.00;-15917.19;5059057;28;51079;-57
2022/12/13 04:46:37;;;;;;;;;14.00;13.75;;;;;-147.17;100.00;-15917.19;5062303;28;51713;-59
2022/12/13 04:49:02;;;;;;;;;20.75;18.00;;;;;-147.17;100.00;-15917.19;5053554;28;52778;-59
2022/12/13 04:51:28;;;;;;;;;24.25;16.25;;;;;-147.17;100.00;-15917.19;5067096;28;51099;-60
2022/12/13 04:53:53;;;;;;;;;15.00;15.00;;;;;-147.17;100.00;-15917.19;5051023;28;51297;-59
2022/12/13 04:56:18;;;;;;;;;19.25;16.00;;;;;-147.17;100.00;-15917.19;5070229;27;50900;-59
2022/12/13 04:58:44;;;;;;;;;18.50;16.75;;;;;-147.17;100.00;-15917.19;5073235;28;51280;-57
2022/12/13 05:01:10;;;;;;;;;27.00;19.75;;;;;-147.17;100.00;-15917.19;5063118;28;51207;-57
2022/12/13 05:03:36;;;;;;;;;15.25;13.00;;;;;-147.17;100.00;-15917.19;5060727;28;51440;-59
2022/12/13 05:06:10;;;;;;;;;21.50;16.50;;;;;-147.17;100.00;-15917.19;5063518;28;52157;-59
2022/12/13 05:08:36;;;;;;;;;18.25;18.25;;;;;-147.17;100.00;-15917.19;5040652;28;51152;-59
2022/12/13 05:11:03;;;;;;;;;21.50;18.25;;;;;-147.17;100.00;-15917.19;5063362;28;51081;-59
2022/12/13 05:13:28;;;;;;;;;18.25;15.75;;;;;-147.17;100.00;-15917.19;5058780;28;51136;-59
2022/12/13 05:16:02;;;;;;;;;25.50;18.00;;;;;-147.17;100.00;-15917.19;5054506;28;51755;-59
2022/12/13 05:18:28;;;;;;;;;23.00;21.75;;;;;-147.17;100.00;-15917.19;5055811;28;51051;-59
2022/12/13 05:20:54;;;;;;;;;21.25;17.00;;;;;-147.17;100.00;-15917.19;5045218;28;51037;-58
2022/12/13 05:23:20;;;;;;;;;26.50;22.75;;;;;-147.17;100.00;-15917.19;5053484;28;51172;-60
2022/12/13 05:25:46;;;;;;;;;21.75;18.50;;;;;-147.17;100.00;-15917.19;5052832;28;51829;-59
2022/12/13 05:28:12;;;;;;;;;19.75;17.00;;;;;-147.17;100.00;-15917.19;5053015;28;52603;-60
2022/12/13 05:30:41;;;;;;;;;21.75;18.25;;;;;-147.17;100.00;-15917.19;5053963;28;51106;-59
2022/12/13 05:33:07;;;;;;;;;18.00;16.25;;;;;-147.17;100.00;-15917.19;5070452;28;51393;-59
2022/12/13 05:35:33;;;;;;;;;15.25;12.00;;;;;-147.17;100.00;-15917.19;5044386;28;51776;-58
2022/12/13 05:37:58;;;;;;;;;19.50;16.00;;;;;-147.17;100.00;-15917.19;5062711;28;51079;-60
2022/12/13 05:40:25;;;;;;;;;18.00;17.50;;;;;-147.17;100.00;-15917.19;5066724;28;51291;-59
2022/12/13 05:42:50;;;;;;;;;18.50;12.00;;;;;-147.17;100.00;-15917.19;5069501;28;50941;-58
2022/12/13 05:45:17;;;;;;;;;20.75;18.50;;;;;-147.17;100.00;-15917.19;5052985;28;52046;-57
2022/12/13 05:47:43;;;;;;;;;20.00;18.50;;;;;-147.17;100.00;-15917.19;5052306;28;51039;-58
2022/12/13 05:50:09;;;;;;;;;24.25;18.75;;;;;-147.17;100.00;-15917.19;5053155;28;51345;-59
2022/12/13 05:52:34;;;;;;;;;22.50;18.25;;;;;-147.17;100.00;-15917.19;5072687;28;51052;-59
2022/12/13 05:55:00;;;;;;;;;24.75;19.25;;;;;-147.17;100.00;-15917.19;5068290;28;51817;-59
2022/12/13 05:57:25;;;;;;;;;25.00;22.00;;;;;-147.17;100.00;-15917.19;5051491;28;51099;-60
2022/12/13 05:59:50;;;;;;;;;20.00;18.25;;;;;-147.17;100.00;-15917.19;5049084;28;51085;-59
2022/12/13 06:02:19;;;;;;;;;22.00;18.75;;;;;-147.17;100.00;-15917.19;5060095;28;50959;-58
2022/12/13 06:04:44;;;;;;;;;21.50;18.50;;;;;-147.17;100.00;-15917.19;5052178;28;51805;-59
2022/12/13 06:07:10;;;;;;;;;22.00;19.50;;;;;-147.17;100.00;-15917.19;5054461;28;51044;-58
2022/12/13 06:09:35;;;;;;;;;22.25;19.50;;;;;-147.17;100.00;-15917.19;5052308;28;51017;-59
2022/12/13 06:12:01;;;;;;;;;21.00;18.00;;;;;-147.17;100.00;-15917.19;5044246;28;51177;-59
2022/12/13 06:14:26;;;;;;;;;18.75;17.50;;;;;-147.17;100.00;-15917.19;5072696;28;51837;-60
2022/12/13 06:16:52;;;;;;;;;18.25;16.00;;;;;-147.17;100.00;-15917.19;5054700;28;50992;-58
2022/12/13 06:19:18;;;;;;;;;17.50;14.50;;;;;-147.17;100.00;-15917.19;5060354;28;50964;-59
2022/12/13 06:21:44;;;;;;;;;21.25;19.50;;;;;-147.17;100.00;-15917.19;5052909;28;51162;-58
2022/12/13 06:24:09;;;;;;;;;10.00;9.75;;;;;-147.17;100.00;-15917.19;5054695;28;51916;-61
2022/12/13 06:26:35;;;;;;;;;21.00;17.00;;;;;-147.17;100.00;-15917.19;5065582;28;51189;-59
2022/12/13 06:29:00;;;;;;;;;24.50;20.25;;;;;-147.17;100.00;-15917.19;5052758;28;51329;-60
2022/12/13 06:31:25;;;;;;;;;28.25;27.00;;;;;-147.17;100.00;-15917.19;5052879;28;51327;-59
2022/12/13 06:33:51;;;;;;;;;28.75;24.25;;;;;-147.17;100.00;-15917.19;5052139;28;51266;-58
2022/12/13 06:36:16;;;;;;;;;20.50;18.00;;;;;-147.17;100.00;-15917.19;5052670;28;51014;-60
2022/12/13 06:38:41;;;;;;;;;21.75;19.25;;;;;-147.17;100.00;-15917.19;5052255;28;51139;-63
2022/12/13 06:41:09;;;;;;;;;21.75;20.50;;;;;-147.17;100.00;-15917.19;5052579;28;51115;-60
2022/12/13 06:43:35;;;;;;;;;19.25;18.75;;;;;-147.17;100.00;-15917.19;5052079;28;51905;-59
2022/12/13 06:46:04;;;;;;;;;20.00;14.00;;;;;-147.17;100.00;-15917.19;5047046;28;51095;-59
2022/12/13 06:48:30;;;;;;;;;19.50;18.00;;;;;-147.17;100.00;-15917.19;5055929;28;51255;-60
2022/12/13 06:51:02;;;;;;;;;30.50;26.50;;;;;-147.17;100.00;-15917.19;5059939;28;50965;-59
2022/12/13 06:53:29;;;;;;;;;31.25;28.25;;;;;-147.17;100.00;-15917.19;5051492;28;52885;-59
2022/12/13 06:55:54;;;;;;;;;19.50;18.25;;;;;-147.17;100.00;-15917.19;5053584;28;51324;-59
2022/12/13 06:58:20;;;;;;;;;26.75;21.25;;;;;-147.17;100.00;-15917.19;5051926;28;51346;-60
2022/12/13 07:00:45;;;;;;;;;23.00;21.75;;;;;-147.17;100.00;-15917.19;5055851;28;51103;-60
2022/12/13 07:03:11;;;;;;;;;26.00;23.75;;;;;-147.17;100.00;-15917.19;5073134;28;51910;-60
2022/12/13 07:05:37;;;;;;;;;20.00;20.00;;;;;-147.17;100.00;-15917.19;5046664;28;51380;-58
2022/12/13 07:08:03;;;;;;;;;30.25;24.50;;;;;-147.17;100.00;-15917.19;5055352;28;51251;-60
2022/12/13 07:10:28;;;;;;;;;17.50;17.50;;;;;-147.17;100.00;-15917.19;5059469;28;50972;-59
2022/12/13 07:12:54;;;;;;;;;25.25;21.50;;;;;-147.17;100.00;-15917.19;5060523;28;51760;-59
2022/12/13 07:15:19;;;;;;;;;20.75;19.00;;;;;-147.17;100.00;-15917.19;5055027;28;50983;-60
2022/12/13 07:17:49;;;;;;;;;26.50;25.25;;;;;-147.17;100.00;-15917.19;5054629;28;50886;-59
2022/12/13 07:20:15;;;;;;;;;27.00;23.00;;;;;-147.17;100.00;-15917.19;5053850;28;51137;-60
2022/12/13 07:22:40;;;;;;;;;24.75;22.75;;;;;-147.17;100.00;-15917.19;5051223;28;53132;-60
2022/12/13 07:25:06;;;;;;;;;27.50;24.75;;;;;-147.17;100.00;-15917.19;5065755;28;51079;-60
2022/12/13 07:27:32;;;;;;;;;19.00;17.00;;;;;-147.17;100.00;-15917.19;5054726;28;51159;-60
2022/12/13 07:29:58;;;;;;;;;25.25;21.50;;;;;-147.17;100.00;-15917.19;5054121;28;51379;-59
2022/12/13 07:32:23;;;;;;;;;22.25;20.00;;;;;-147.17;100.00;-15917.19;5059073;28;52523;-60
2022/12/13 07:34:49;;;;;;;;;26.50;22.50;;;;;-147.17;100.00;-15917.19;5075223;28;51100;-60
2022/12/13 07:37:15;;;;;;;;;25.75;23.25;;;;;-147.17;100.00;-15917.19;5075125;28;50934;-60
2022/12/13 07:39:40;;;;;;;;;26.00;24.50;;;;;-147.17;100.00;-15917.19;5075589;28;51295;-61
2022/12/13 07:42:06;;;;;;;;;30.50;27.00;;;;;-147.17;100.00;-15917.19;5075039;28;50955;-60
2022/12/13 07:44:31;;;;;;;;;27.75;22.00;;;;;-147.17;100.00;-15917.19;5060031;28;50993;-60
2022/12/13 07:46:56;;;;;;;;;20.00;18.25;;;;;-147.17;100.00;-15917.19;5054912;28;51093;-60
2022/12/13 07:49:22;;;;;;;;;26.50;21.75;;;;;-147.17;100.00;-15917.19;5070700;28;51130;-59
2022/12/13 07:51:47;;;;;;;;;28.75;26.00;;;;;-147.17;100.00;-15917.19;5075497;28;51752;-60
2022/12/13 07:54:13;;;;;;;;;24.00;22.00;;;;;-147.17;100.00;-15917.19;5075306;28;51009;-58
2022/12/13 07:56:39;;;;;;;;;27.00;25.00;;;;;-147.17;100.00;-15917.19;5059329;28;51207;-61
2022/12/13 07:59:04;;;;;;;;;23.75;21.00;;;;;-147.17;100.00;-15917.19;5054955;28;51267;-61
2022/12/13 08:01:33;;;;;;;;;30.50;21.50;;;;;-147.17;100.00;-15917.19;5054601;28;52069;-60
2022/12/13 08:03:59;;;;;;;;;25.00;22.00;;;;;-147.17;100.00;-15917.19;5054960;28;51045;-60
2022/12/13 08:06:25;;;;;;;;;26.75;22.25;;;;;-147.17;100.00;-15917.19;5053787;28;51107;-58
2022/12/13 08:08:56;;;;;;;;;24.00;21.25;;;;;-147.17;100.00;-15917.19;5035694;28;50962;-59
2022/12/13 08:11:22;;;;;;;;;29.00;20.50;;;;;-147.17;100.00;-15917.19;5057990;28;53223;-61
2022/12/13 08:13:48;;;;;;;;;29.50;26.25;;;;;-147.17;100.00;-15917.19;5047717;28;51233;-60
2022/12/13 08:16:16;;;;;;;;;29.25;28.00;;;;;-147.17;100.00;-15917.19;5056809;28;51091;-59
2022/12/13 08:18:43;;;;;;;;;28.50;28.50;;;;;-147.17;100.00;-15917.19;5052620;28;50959;-61
2022/12/13 08:21:09;;;;;;;;;31.00;27.75;;;;;-147.17;100.00;-15917.19;5061003;28;52961;-60
2022/12/13 08:23:35;;;;;;;;;29.75;26.00;;;;;-147.17;100.00;-15917.19;5049590;28;51353;-60
2022/12/13 08:26:02;;;;;;;;;25.00;20.25;;;;;-147.17;100.00;-15917.19;5054495;28;51037;-59
2022/12/13 08:28:29;;;;;;;;;31.00;29.50;;;;;-147.17;100.00;-15917.19;5057154;28;51139;-60
2022/12/13 08:30:55;;;;;;;;;31.25;27.50;;;;;-147.17;100.00;-15917.19;5063162;28;52781;-58
2022/12/13 08:33:21;;;;;;;;;34.00;30.00;;;;;-147.17;100.00;-15917.19;5053540;28;51141;-60
2022/12/13 08:35:47;;;;;;;;;32.00;27.25;;;;;-147.17;100.00;-15917.19;5073536;28;50906;-61
2022/12/13 08:38:13;;;;;;;;;29.25;26.00;;;;;-147.17;100.00;-15917.19;5074371;28;51295;-60
2022/12/13 08:40:38;;;;;;;;;31.25;27.00;;;;;-147.17;100.00;-15917.19;5054588;28;51366;-60
2022/12/13 08:43:04;;;;;;;;;26.50;24.25;;;;;-147.17;100.00;-15917.19;5053484;28;51029;-60
2022/12/13 08:45:32;;;;;;;;;35.50;32.00;;;;;-147.17;100.00;-15917.19;5053505;28;51155;-59
2022/12/13 08:47:59;;;;;;;;;31.50;29.25;;;;;-147.17;100.00;-15917.19;5056405;28;51163;-59
2022/12/13 08:50:25;;;;;;;;;31.00;26.00;;;;;-147.17;100.00;-15917.19;5043764;28;51857;-58
2022/12/13 08:52:51;;;;;;;;;33.25;30.00;;;;;-147.17;100.00;-15917.19;5061770;28;51194;-59
2022/12/13 08:55:16;;;;;;;;;28.25;26.75;;;;;-147.17;100.00;-15917.19;5059501;28;51069;-58
2022/12/13 08:57:43;;;;;;;;;25.00;20.00;;;;;-147.17;100.00;-15917.19;5074033;28;51116;-59
2022/12/13 09:00:14;;;;;;;;;36.00;32.50;;;;;-147.17;100.00;-15917.19;5073410;28;51897;-58
2022/12/13 09:02:40;;;;;;;;;36.25;31.50;;;;;-147.17;100.00;-15917.19;5055663;28;51036;-62
2022/12/13 09:05:07;;;;;;;;;39.50;31.00;;;;;-147.17;100.00;-15917.19;5072764;28;51291;-59
2022/12/13 09:07:34;;;;;;;;;30.50;26.75;;;;;-147.17;100.00;-15917.19;5061629;28;50938;-59
2022/12/13 09:10:00;;;;;;;;;27.50;25.50;;;;;-147.17;100.00;-15917.19;5063147;27;51230;-59
2022/12/13 09:12:25;;;;;;;;;34.25;29.00;;;;;-147.17;100.00;-15917.19;5063875;27;50991;-59
2022/12/13 09:14:51;;;;;;;;;27.50;24.75;;;;;-147.17;100.00;-15917.19;5073935;28;51070;-57
2022/12/13 09:17:16;;;;;;;;;34.75;28.75;;;;;-147.17;100.00;-15917.19;5068749;27;51311;-59
2022/12/13 09:19:41;;;;;;;;;37.50;35.00;;;;;-147.17;100.00;-15917.19;5073449;28;51080;-59
2022/12/13 09:22:07;;;;;;;;;33.25;29.25;;;;;-147.17;100.00;-15917.19;5051480;28;51369;-59
2022/12/13 09:24:32;;;;;;;;;24.50;21.50;;;;;-147.17;100.00;-15917.19;5063385;28;51118;-59
2022/12/13 09:26:58;;;;;;;;;22.50;17.75;;;;;-147.17;100.00;-15917.19;5073573;28;51146;-59
2022/12/13 09:29:24;;;;;;;;;33.00;32.00;;;;;-147.17;100.00;-15917.19;5068871;27;51862;-58
2022/12/13 09:31:50;;;;;;;;;35.50;34.00;;;;;-147.17;100.00;-15917.19;5053280;28;51084;-59
2022/12/13 09:34:15;;;;;;;;;32.75;32.50;;;;;-147.17;100.00;-15917.19;5053588;28;50957;-59
2022/12/13 09:36:41;;;;;;;;;34.50;30.00;;;;;-147.17;100.00;-15917.19;5053446;28;50881;-59
2022/12/13 09:39:07;;;;;;;;;33.00;27.75;;;;;-147.17;100.00;-15917.19;5036549;28;53880;-60
2022/12/13 09:41:45;;;;;;;;;34.00;29.25;;;;;-147.17;100.00;-15917.19;5058936;28;51058;-59
2022/12/13 09:44:20;;;;;;;;;30.50;28.50;;;;;-147.17;100.00;-15917.19;5052913;28;51211;-59
2022/12/13 09:46:48;;;;;;;;;35.25;28.25;;;;;-147.17;100.00;-15917.19;5053065;28;50966;-59
2022/12/13 09:49:34;;;;;;;;;12.50;12.00;;;;;-147.17;100.00;-15917.19;5051697;28;51158;-59
2022/12/13 09:52:01;;;;;;;;;34.75;30.75;;;;;-147.17;100.00;-15917.19;5053295;28;51234;-60
2022/12/13 09:54:27;;;;;;;;;30.75;28.00;;;;;-147.17;100.00;-15917.19;5061250;28;51022;-59
2022/12/13 09:56:55;;;;;;;;;33.25;30.50;;;;;-147.17;100.00;-15917.19;5044707;28;50941;-60
2022/12/13 09:59:27;;;;;;;;;30.50;27.25;;;;;-147.17;100.00;-15917.19;5052060;28;51041;-59
2022/12/13 10:01:54;;;;;;;;;31.00;27.75;;;;;-147.17;100.00;-15917.19;5062486;28;51098;-60
2022/12/13 10:04:20;;;;;;;;;23.75;22.25;;;;;-147.17;100.00;-15917.19;5054092;28;51052;-60
2022/12/13 10:06:46;;;;;;;;;33.50;30.50;;;;;-147.17;100.00;-15917.19;5051268;28;51098;-59
2022/12/13 10:09:13;;;;;;;;;35.00;27.25;;;;;-147.17;100.00;-15917.19;5051835;28;51012;-58
2022/12/13 10:11:53;;;;;;;;;33.25;30.50;;;;;-147.17;100.00;-15917.19;5057179;28;51048;-59
2022/12/13 10:14:33;;;;;;;;;33.75;32.75;;;;;-147.17;100.00;-15917.19;5052202;28;51098;-59
2022/12/13 10:17:04;;;;;;;;;23.75;22.50;;;;;-147.17;100.00;-15917.19;5034088;28;51339;-59
2022/12/13 10:19:38;;;;;;;;;28.75;24.75;;;;;-147.17;100.00;-15917.19;5034688;28;51105;-59
2022/12/13 10:22:09;;;;;;;;;38.50;33.75;;;;;-147.17;100.00;-15917.19;5064162;28;50988;-59
2022/12/13 10:24:59;;;;;;;;;34.00;31.25;;;;;-147.17;100.00;-15917.19;5025322;28;51192;-59
2022/12/13 10:27:37;;;;;;;;;29.50;23.00;;;;;-147.17;100.00;-15917.19;5053103;28;51392;-58
2022/12/13 10:30:14;;;;;;;;;33.50;27.50;;;;;-147.17;100.00;-15917.19;5053611;28;52063;-57
2022/12/13 10:33:03;;;;;;;;;26.50;23.00;;;;;-147.17;100.00;-15917.19;5059253;28;51020;-59
2022/12/13 10:35:29;;;;;;;;;24.00;21.00;;;;;-147.17;100.00;-15917.19;5062739;28;51014;-59
2022/12/13 10:37:56;;;;;;;;;36.50;32.50;;;;;-147.17;100.00;-15917.19;5053921;28;51073;-59
2022/12/13 10:40:24;;;;;;;;;35.50;27.50;;;;;-147.17;100.00;-15917.19;5052976;28;51399;-59
2022/12/13 10:43:14;;;;;;;;;28.50;27.50;;;;;-147.17;100.00;-15917.19;5051295;28;51052;-58
2022/12/13 10:45:41;;;;;;;;;5.00;3.75;;;;;-147.17;100.00;-15917.19;5066015;28;51214;-59
2022/12/13 10:48:45;;;;;;;;;34.00;29.00;;;;;-147.17;100.00;-15917.19;5053400;28;51129;-58
2022/12/13 10:51:14;;;;;;;;;29.50;26.00;;;;;-147.17;100.00;-15917.19;5051147;28;53846;-59
2022/12/13 10:53:50;;;;;;;;;31.75;27.50;;;;;-147.17;100.00;-15917.19;5052781;28;51068;-59
2022/12/13 10:56:18;;;;;;;;;29.75;24.50;;;;;-147.17;100.00;-15917.19;5035692;28;51218;-59
2022/12/13 10:58:51;;;;;;;;;32.00;29.75;;;;;-147.17;100.00;-15917.19;5052108;28;50915;-60